sensor_id;sensor_type;location;lat;lon;timestamp;temperature;humidity
9223;DHT22;7557;51.698;3.942;2023-04-03T00:00:52;6.40;99.90
9223;DHT22;7557;51.698;3.942;2023-04-03T00:03:20;6.30;99.90
9223;DHT22;7557;51.698;3.942;2023-04-03T00:05:48;6.20;99.90
9223;DHT22;7557;51.698;3.942;2023-04-03T00:08:17;6.10;99.90
9223;DHT22;7557;51.698;3.942;2023-04-03T00:10:44;6.10;99.90
9223;DHT22;7557;51.698;3.942;2023-04-03T00:13:12;6.10;99.90
9223;DHT22;7557;51.698;3.942;2023-04-03T00:15:40;6.10;99.90
9223;DHT22;7557;51.698;3.942;2023-04-03T00:18:09;6.10;99.90
9223;DHT22;7557;51.698;3.942;2023-04-03T00:20:37;6.00;99.90
9223;DHT22;7557;51.698;3.942;2023-04-03T00:23:05;6.00;99.90
9223;DHT22;7557;51.698;3.942;2023-04-03T00:25:34;6.00;99.90
9223;DHT22;7557;51.698;3.942;2023-04-03T00:28:02;5.80;99.90
9223;DHT22;7557;51.698;3.942;2023-04-03T00:30:30;5.80;99.90
9223;DHT22;7557;51.698;3.942;2023-04-03T00:32:58;5.70;99.90
9223;DHT22;7557;51.698;3.942;2023-04-03T00:35:27;5.70;99.90
9223;DHT22;7557;51.698;3.942;2023-04-03T00:37:57;5.60;99.90
9223;DHT22;7557;51.698;3.942;2023-04-03T00:40:26;5.60;99.90
9223;DHT22;7557;51.698;3.942;2023-04-03T00:42:58;5.60;99.90
9223;DHT22;7557;51.698;3.942;2023-04-03T00:45:32;5.60;99.90
9223;DHT22;7557;51.698;3.942;2023-04-03T00:48:02;5.60;99.90
9223;DHT22;7557;51.698;3.942;2023-04-03T00:50:33;5.50;99.90
9223;DHT22;7557;51.698;3.942;2023-04-03T00:53:05;5.50;99.90
9223;DHT22;7557;51.698;3.942;2023-04-03T00:55:34;5.50;99.90
9223;DHT22;7557;51.698;3.942;2023-04-03T00:58:06;5.50;99.90
9223;DHT22;7557;51.698;3.942;2023-04-03T01:00:34;5.40;99.90
9223;DHT22;7557;51.698;3.942;2023-04-03T01:03:03;5.40;99.90
9223;DHT22;7557;51.698;3.942;2023-04-03T01:05:30;5.40;99.90
9223;DHT22;7557;51.698;3.942;2023-04-03T01:07:58;5.30;99.90
9223;DHT22;7557;51.698;3.942;2023-04-03T01:10:26;5.30;99.90
9223;DHT22;7557;51.698;3.942;2023-04-03T01:12:54;5.20;99.90
9223;DHT22;7557;51.698;3.942;2023-04-03T01:15:24;5.20;99.90
9223;DHT22;7557;51.698;3.942;2023-04-03T01:17:54;5.20;99.90
9223;DHT22;7557;51.698;3.942;2023-04-03T01:23:36;5.20;99.90
9223;DHT22;7557;51.698;3.942;2023-04-03T01:26:05;5.10;99.90
9223;DHT22;7557;51.698;3.942;2023-04-03T01:28:34;5.10;99.90
9223;DHT22;7557;51.698;3.942;2023-04-03T01:31:13;5.10;99.90
9223;DHT22;7557;51.698;3.942;2023-04-03T01:33:43;5.00;99.90
9223;DHT22;7557;51.698;3.942;2023-04-03T01:36:14;5.10;99.90
9223;DHT22;7557;51.698;3.942;2023-04-03T01:38:42;5.20;99.90
9223;DHT22;7557;51.698;3.942;2023-04-03T01:41:10;5.20;99.90
9223;DHT22;7557;51.698;3.942;2023-04-03T01:43:37;5.20;99.90
9223;DHT22;7557;51.698;3.942;2023-04-03T01:46:05;5.20;99.90
9223;DHT22;7557;51.698;3.942;2023-04-03T01:48:33;5.10;99.90
9223;DHT22;7557;51.698;3.942;2023-04-03T01:51:02;5.10;99.90
9223;DHT22;7557;51.698;3.942;2023-04-03T01:53:30;5.10;99.90
9223;DHT22;7557;51.698;3.942;2023-04-03T01:55:57;5.10;99.90
9223;DHT22;7557;51.698;3.942;2023-04-03T01:58:25;5.00;99.90
9223;DHT22;7557;51.698;3.942;2023-04-03T02:00:53;5.00;99.90
9223;DHT22;7557;51.698;3.942;2023-04-03T02:03:20;5.00;99.90
9223;DHT22;7557;51.698;3.942;2023-04-03T02:05:47;5.00;99.90
9223;DHT22;7557;51.698;3.942;2023-04-03T02:08:17;4.90;99.90
9223;DHT22;7557;51.698;3.942;2023-04-03T02:10:46;4.90;99.90
9223;DHT22;7557;51.698;3.942;2023-04-03T02:13:13;4.90;99.90
9223;DHT22;7557;51.698;3.942;2023-04-03T02:15:41;4.90;99.90
9223;DHT22;7557;51.698;3.942;2023-04-03T02:18:09;5.00;99.90
9223;DHT22;7557;51.698;3.942;2023-04-03T02:20:36;5.00;99.90
9223;DHT22;7557;51.698;3.942;2023-04-03T02:23:04;4.90;99.90
9223;DHT22;7557;51.698;3.942;2023-04-03T02:25:33;4.80;99.90
9223;DHT22;7557;51.698;3.942;2023-04-03T02:28:00;4.80;99.90
9223;DHT22;7557;51.698;3.942;2023-04-03T02:30:28;4.80;99.90
9223;DHT22;7557;51.698;3.942;2023-04-03T02:32:55;4.80;99.90
9223;DHT22;7557;51.698;3.942;2023-04-03T02:35:23;4.80;99.90
9223;DHT22;7557;51.698;3.942;2023-04-03T02:37:50;4.80;99.90
9223;DHT22;7557;51.698;3.942;2023-04-03T02:40:18;4.80;99.90
9223;DHT22;7557;51.698;3.942;2023-04-03T02:42:47;4.70;99.90
9223;DHT22;7557;51.698;3.942;2023-04-03T02:45:14;4.70;99.90
9223;DHT22;7557;51.698;3.942;2023-04-03T02:47:42;4.70;99.90
9223;DHT22;7557;51.698;3.942;2023-04-03T02:50:12;4.70;99.90
9223;DHT22;7557;51.698;3.942;2023-04-03T02:52:40;4.70;99.90
9223;DHT22;7557;51.698;3.942;2023-04-03T02:55:08;4.70;99.90
9223;DHT22;7557;51.698;3.942;2023-04-03T02:57:35;4.80;99.90
9223;DHT22;7557;51.698;3.942;2023-04-03T03:00:05;4.80;99.90
9223;DHT22;7557;51.698;3.942;2023-04-03T03:02:33;4.90;99.90
9223;DHT22;7557;51.698;3.942;2023-04-03T03:05:00;4.90;99.90
9223;DHT22;7557;51.698;3.942;2023-04-03T03:07:28;4.90;99.90
9223;DHT22;7557;51.698;3.942;2023-04-03T03:09:56;4.80;99.90
9223;DHT22;7557;51.698;3.942;2023-04-03T03:12:23;4.80;99.90
9223;DHT22;7557;51.698;3.942;2023-04-03T03:14:51;4.90;99.90
9223;DHT22;7557;51.698;3.942;2023-04-03T03:17:19;4.80;99.90
9223;DHT22;7557;51.698;3.942;2023-04-03T03:19:47;4.80;99.90
9223;DHT22;7557;51.698;3.942;2023-04-03T03:22:15;4.80;99.90
9223;DHT22;7557;51.698;3.942;2023-04-03T03:24:43;4.80;99.90
9223;DHT22;7557;51.698;3.942;2023-04-03T03:27:10;4.70;99.90
9223;DHT22;7557;51.698;3.942;2023-04-03T03:29:38;4.70;99.90
9223;DHT22;7557;51.698;3.942;2023-04-03T03:32:06;4.70;99.90
9223;DHT22;7557;51.698;3.942;2023-04-03T03:34:34;4.60;99.90
9223;DHT22;7557;51.698;3.942;2023-04-03T03:37:02;4.50;99.90
9223;DHT22;7557;51.698;3.942;2023-04-03T03:39:29;4.50;99.90
9223;DHT22;7557;51.698;3.942;2023-04-03T03:41:57;4.50;99.90
9223;DHT22;7557;51.698;3.942;2023-04-03T03:44:24;4.50;99.90
9223;DHT22;7557;51.698;3.942;2023-04-03T03:46:51;4.50;99.90
9223;DHT22;7557;51.698;3.942;2023-04-03T03:49:19;4.50;99.90
9223;DHT22;7557;51.698;3.942;2023-04-03T03:51:48;4.50;99.90
9223;DHT22;7557;51.698;3.942;2023-04-03T03:54:15;4.50;99.90
9223;DHT22;7557;51.698;3.942;2023-04-03T03:56:43;4.40;99.90
9223;DHT22;7557;51.698;3.942;2023-04-03T03:59:11;4.30;99.90
9223;DHT22;7557;51.698;3.942;2023-04-03T04:01:39;4.40;99.90
9223;DHT22;7557;51.698;3.942;2023-04-03T04:04:07;4.30;99.90
9223;DHT22;7557;51.698;3.942;2023-04-03T04:06:34;4.30;99.90
9223;DHT22;7557;51.698;3.942;2023-04-03T04:09:03;4.20;99.90
9223;DHT22;7557;51.698;3.942;2023-04-03T04:11:31;4.20;99.90
9223;DHT22;7557;51.698;3.942;2023-04-03T04:13:59;4.10;99.90
9223;DHT22;7557;51.698;3.942;2023-04-03T04:16:27;4.10;99.90
9223;DHT22;7557;51.698;3.942;2023-04-03T04:18:54;4.00;99.90
9223;DHT22;7557;51.698;3.942;2023-04-03T04:21:22;3.90;99.90
9223;DHT22;7557;51.698;3.942;2023-04-03T04:23:49;3.90;99.90
9223;DHT22;7557;51.698;3.942;2023-04-03T04:26:18;4.00;99.90
9223;DHT22;7557;51.698;3.942;2023-04-03T04:28:46;4.00;99.90
9223;DHT22;7557;51.698;3.942;2023-04-03T04:31:13;4.10;99.90
9223;DHT22;7557;51.698;3.942;2023-04-03T04:33:40;4.20;99.90
9223;DHT22;7557;51.698;3.942;2023-04-03T04:36:08;4.30;99.90
9223;DHT22;7557;51.698;3.942;2023-04-03T04:38:36;4.40;99.90
9223;DHT22;7557;51.698;3.942;2023-04-03T04:41:04;4.50;99.90
9223;DHT22;7557;51.698;3.942;2023-04-03T04:43:33;4.50;99.90
9223;DHT22;7557;51.698;3.942;2023-04-03T04:46:01;4.60;99.90
9223;DHT22;7557;51.698;3.942;2023-04-03T04:48:29;4.60;99.90
9223;DHT22;7557;51.698;3.942;2023-04-03T04:50:56;4.60;99.90
9223;DHT22;7557;51.698;3.942;2023-04-03T04:53:23;4.50;99.90
9223;DHT22;7557;51.698;3.942;2023-04-03T04:55:51;4.40;99.90
9223;DHT22;7557;51.698;3.942;2023-04-03T04:58:19;4.50;99.90
9223;DHT22;7557;51.698;3.942;2023-04-03T05:00:48;4.50;99.90
9223;DHT22;7557;51.698;3.942;2023-04-03T05:03:15;4.60;99.90
9223;DHT22;7557;51.698;3.942;2023-04-03T05:05:43;4.60;99.90
9223;DHT22;7557;51.698;3.942;2023-04-03T05:08:10;4.70;99.90
9223;DHT22;7557;51.698;3.942;2023-04-03T05:10:38;4.70;99.90
9223;DHT22;7557;51.698;3.942;2023-04-03T05:13:06;4.60;99.90
9223;DHT22;7557;51.698;3.942;2023-04-03T05:15:33;4.50;99.90
9223;DHT22;7557;51.698;3.942;2023-04-03T05:18:02;4.50;99.90
9223;DHT22;7557;51.698;3.942;2023-04-03T05:20:30;4.40;99.90
9223;DHT22;7557;51.698;3.942;2023-04-03T05:22:58;4.40;99.90
9223;DHT22;7557;51.698;3.942;2023-04-03T05:25:25;4.40;99.90
9223;DHT22;7557;51.698;3.942;2023-04-03T05:27:53;4.40;99.90
9223;DHT22;7557;51.698;3.942;2023-04-03T05:30:20;4.50;99.90
9223;DHT22;7557;51.698;3.942;2023-04-03T05:32:48;4.50;99.90
9223;DHT22;7557;51.698;3.942;2023-04-03T05:35:17;4.50;99.90
9223;DHT22;7557;51.698;3.942;2023-04-03T05:37:44;4.60;99.90
9223;DHT22;7557;51.698;3.942;2023-04-03T05:40:12;4.60;99.90
9223;DHT22;7557;51.698;3.942;2023-04-03T05:42:40;4.60;99.90
9223;DHT22;7557;51.698;3.942;2023-04-03T05:45:08;4.70;99.90
9223;DHT22;7557;51.698;3.942;2023-04-03T05:47:35;4.60;99.90
9223;DHT22;7557;51.698;3.942;2023-04-03T05:50:03;4.70;99.90
9223;DHT22;7557;51.698;3.942;2023-04-03T05:52:35;4.70;99.90
9223;DHT22;7557;51.698;3.942;2023-04-03T05:55:04;4.70;99.90
9223;DHT22;7557;51.698;3.942;2023-04-03T05:57:31;4.70;99.90
9223;DHT22;7557;51.698;3.942;2023-04-03T06:00:00;4.80;99.90
9223;DHT22;7557;51.698;3.942;2023-04-03T06:02:28;4.90;99.90
9223;DHT22;7557;51.698;3.942;2023-04-03T06:04:57;4.90;99.90
9223;DHT22;7557;51.698;3.942;2023-04-03T06:07:25;4.90;99.90
9223;DHT22;7557;51.698;3.942;2023-04-03T06:09:57;5.00;99.90
9223;DHT22;7557;51.698;3.942;2023-04-03T06:12:25;5.00;99.90
9223;DHT22;7557;51.698;3.942;2023-04-03T06:14:54;5.10;99.90
9223;DHT22;7557;51.698;3.942;2023-04-03T06:17:22;5.10;99.90
9223;DHT22;7557;51.698;3.942;2023-04-03T06:19:49;5.20;99.90
9223;DHT22;7557;51.698;3.942;2023-04-03T06:22:17;5.20;99.90
9223;DHT22;7557;51.698;3.942;2023-04-03T06:24:44;5.30;99.90
9223;DHT22;7557;51.698;3.942;2023-04-03T06:27:13;5.40;99.90
9223;DHT22;7557;51.698;3.942;2023-04-03T06:29:41;5.50;99.90
9223;DHT22;7557;51.698;3.942;2023-04-03T06:32:11;5.60;99.90
9223;DHT22;7557;51.698;3.942;2023-04-03T06:34:38;5.60;99.90
9223;DHT22;7557;51.698;3.942;2023-04-03T06:37:05;5.70;99.90
9223;DHT22;7557;51.698;3.942;2023-04-03T06:39:33;5.70;99.90
9223;DHT22;7557;51.698;3.942;2023-04-03T06:42:00;5.80;99.90
9223;DHT22;7557;51.698;3.942;2023-04-03T06:44:29;5.80;99.90
9223;DHT22;7557;51.698;3.942;2023-04-03T06:46:57;5.80;99.90
9223;DHT22;7557;51.698;3.942;2023-04-03T06:49:24;5.90;99.90
9223;DHT22;7557;51.698;3.942;2023-04-03T06:51:52;5.90;99.90
9223;DHT22;7557;51.698;3.942;2023-04-03T06:54:19;5.90;99.90
9223;DHT22;7557;51.698;3.942;2023-04-03T06:56:46;6.00;99.90
9223;DHT22;7557;51.698;3.942;2023-04-03T06:59:14;6.00;99.90
9223;DHT22;7557;51.698;3.942;2023-04-03T07:01:43;6.10;99.90
9223;DHT22;7557;51.698;3.942;2023-04-03T07:04:10;6.10;99.90
9223;DHT22;7557;51.698;3.942;2023-04-03T07:06:38;6.10;99.90
9223;DHT22;7557;51.698;3.942;2023-04-03T07:09:06;6.20;99.90
9223;DHT22;7557;51.698;3.942;2023-04-03T07:11:33;6.20;99.90
9223;DHT22;7557;51.698;3.942;2023-04-03T07:14:01;6.30;99.90
9223;DHT22;7557;51.698;3.942;2023-04-03T07:16:29;6.30;99.90
9223;DHT22;7557;51.698;3.942;2023-04-03T07:18:58;6.30;99.90
9223;DHT22;7557;51.698;3.942;2023-04-03T07:21:26;6.30;99.90
9223;DHT22;7557;51.698;3.942;2023-04-03T07:23:53;6.30;99.90
9223;DHT22;7557;51.698;3.942;2023-04-03T07:26:21;6.30;99.90
9223;DHT22;7557;51.698;3.942;2023-04-03T07:28:51;6.30;99.90
9223;DHT22;7557;51.698;3.942;2023-04-03T07:31:18;6.30;99.90
9223;DHT22;7557;51.698;3.942;2023-04-03T07:33:46;6.30;99.90
9223;DHT22;7557;51.698;3.942;2023-04-03T07:36:17;6.40;99.90
9223;DHT22;7557;51.698;3.942;2023-04-03T07:38:46;6.50;99.90
9223;DHT22;7557;51.698;3.942;2023-04-03T07:41:15;6.60;99.90
9223;DHT22;7557;51.698;3.942;2023-04-03T07:43:43;6.70;99.90
9223;DHT22;7557;51.698;3.942;2023-04-03T07:46:11;6.90;99.90
9223;DHT22;7557;51.698;3.942;2023-04-03T07:48:38;7.00;99.90
9223;DHT22;7557;51.698;3.942;2023-04-03T07:51:06;7.10;99.90
9223;DHT22;7557;51.698;3.942;2023-04-03T07:53:34;7.10;99.90
9223;DHT22;7557;51.698;3.942;2023-04-03T07:56:02;7.10;99.90
9223;DHT22;7557;51.698;3.942;2023-04-03T07:58:30;7.20;99.90
9223;DHT22;7557;51.698;3.942;2023-04-03T08:01:00;7.20;99.90
9223;DHT22;7557;51.698;3.942;2023-04-03T08:03:28;7.30;99.90
9223;DHT22;7557;51.698;3.942;2023-04-03T08:06:00;7.40;99.90
9223;DHT22;7557;51.698;3.942;2023-04-03T08:08:29;7.50;99.90
9223;DHT22;7557;51.698;3.942;2023-04-03T08:10:59;7.60;99.90
9223;DHT22;7557;51.698;3.942;2023-04-03T08:13:29;7.70;99.90
9223;DHT22;7557;51.698;3.942;2023-04-03T08:15:56;7.80;99.90
9223;DHT22;7557;51.698;3.942;2023-04-03T08:18:24;7.90;99.90
9223;DHT22;7557;51.698;3.942;2023-04-03T08:20:52;8.00;99.90
9223;DHT22;7557;51.698;3.942;2023-04-03T08:23:19;8.00;99.90
9223;DHT22;7557;51.698;3.942;2023-04-03T08:25:47;7.90;99.90
9223;DHT22;7557;51.698;3.942;2023-04-03T08:28:16;7.90;99.90
9223;DHT22;7557;51.698;3.942;2023-04-03T08:30:43;7.90;99.90
9223;DHT22;7557;51.698;3.942;2023-04-03T08:33:11;7.80;99.90
9223;DHT22;7557;51.698;3.942;2023-04-03T08:35:39;7.80;99.90
9223;DHT22;7557;51.698;3.942;2023-04-03T08:38:07;7.90;99.90
9223;DHT22;7557;51.698;3.942;2023-04-03T08:40:35;7.80;99.90
9223;DHT22;7557;51.698;3.942;2023-04-03T08:43:19;7.90;99.90
9223;DHT22;7557;51.698;3.942;2023-04-03T08:45:51;7.90;99.90
9223;DHT22;7557;51.698;3.942;2023-04-03T08:48:20;8.10;99.90
9223;DHT22;7557;51.698;3.942;2023-04-03T08:50:51;8.20;99.90
9223;DHT22;7557;51.698;3.942;2023-04-03T08:53:23;8.20;99.90
9223;DHT22;7557;51.698;3.942;2023-04-03T08:55:53;8.20;99.90
9223;DHT22;7557;51.698;3.942;2023-04-03T08:58:26;8.20;99.90
9223;DHT22;7557;51.698;3.942;2023-04-03T09:01:00;8.20;99.90
9223;DHT22;7557;51.698;3.942;2023-04-03T09:03:31;8.30;99.90
9223;DHT22;7557;51.698;3.942;2023-04-03T09:06:02;8.40;99.90
9223;DHT22;7557;51.698;3.942;2023-04-03T09:08:33;8.50;99.90
9223;DHT22;7557;51.698;3.942;2023-04-03T09:11:12;8.50;99.90
9223;DHT22;7557;51.698;3.942;2023-04-03T09:13:49;8.40;99.90
9223;DHT22;7557;51.698;3.942;2023-04-03T09:16:32;8.50;99.90
9223;DHT22;7557;51.698;3.942;2023-04-03T09:19:10;8.60;99.90
9223;DHT22;7557;51.698;3.942;2023-04-03T09:21:41;8.70;99.90
9223;DHT22;7557;51.698;3.942;2023-04-03T09:24:10;8.60;99.90
9223;DHT22;7557;51.698;3.942;2023-04-03T09:26:42;8.60;99.90
9223;DHT22;7557;51.698;3.942;2023-04-03T09:29:15;8.60;99.90
9223;DHT22;7557;51.698;3.942;2023-04-03T09:31:45;8.60;99.90
9223;DHT22;7557;51.698;3.942;2023-04-03T09:34:20;8.80;99.90
9223;DHT22;7557;51.698;3.942;2023-04-03T09:36:50;8.90;99.90
9223;DHT22;7557;51.698;3.942;2023-04-03T09:39:19;9.10;99.90
9223;DHT22;7557;51.698;3.942;2023-04-03T09:41:59;9.30;99.90
9223;DHT22;7557;51.698;3.942;2023-04-03T09:44:30;9.30;99.90
9223;DHT22;7557;51.698;3.942;2023-04-03T09:46:58;9.40;99.90
9223;DHT22;7557;51.698;3.942;2023-04-03T09:49:26;9.50;99.90
9223;DHT22;7557;51.698;3.942;2023-04-03T09:51:54;9.60;99.90
9223;DHT22;7557;51.698;3.942;2023-04-03T09:54:31;9.70;99.90
9223;DHT22;7557;51.698;3.942;2023-04-03T09:57:02;9.80;99.90
9223;DHT22;7557;51.698;3.942;2023-04-03T09:59:33;9.80;99.90
9223;DHT22;7557;51.698;3.942;2023-04-03T10:02:04;9.90;99.90
9223;DHT22;7557;51.698;3.942;2023-04-03T10:04:44;9.90;99.90
9223;DHT22;7557;51.698;3.942;2023-04-03T10:07:30;10.00;99.90
9223;DHT22;7557;51.698;3.942;2023-04-03T10:09:59;10.10;99.90
9223;DHT22;7557;51.698;3.942;2023-04-03T10:12:27;10.10;99.90
9223;DHT22;7557;51.698;3.942;2023-04-03T10:15:00;10.20;99.90
9223;DHT22;7557;51.698;3.942;2023-04-03T10:17:37;10.20;99.90
9223;DHT22;7557;51.698;3.942;2023-04-03T10:20:28;10.30;99.90
9223;DHT22;7557;51.698;3.942;2023-04-03T10:23:09;10.50;99.90
9223;DHT22;7557;51.698;3.942;2023-04-03T10:25:42;10.60;99.90
9223;DHT22;7557;51.698;3.942;2023-04-03T10:28:19;10.50;99.90
9223;DHT22;7557;51.698;3.942;2023-04-03T10:30:55;10.50;99.90
9223;DHT22;7557;51.698;3.942;2023-04-03T10:33:39;10.70;99.90
9223;DHT22;7557;51.698;3.942;2023-04-03T10:36:19;10.80;99.90
9223;DHT22;7557;51.698;3.942;2023-04-03T10:38:56;11.00;99.90
9223;DHT22;7557;51.698;3.942;2023-04-03T10:41:33;11.10;99.90
9223;DHT22;7557;51.698;3.942;2023-04-03T10:44:15;11.30;99.90
9223;DHT22;7557;51.698;3.942;2023-04-03T10:46:49;11.40;99.90
9223;DHT22;7557;51.698;3.942;2023-04-03T10:49:29;11.40;99.90
9223;DHT22;7557;51.698;3.942;2023-04-03T10:52:02;11.50;99.30
9223;DHT22;7557;51.698;3.942;2023-04-03T10:54:38;11.50;99.50
9223;DHT22;7557;51.698;3.942;2023-04-03T10:57:08;11.40;98.90
9223;DHT22;7557;51.698;3.942;2023-04-03T10:59:38;11.40;99.70
9223;DHT22;7557;51.698;3.942;2023-04-03T11:02:16;11.50;99.00
9223;DHT22;7557;51.698;3.942;2023-04-03T11:04:50;11.40;98.20
9223;DHT22;7557;51.698;3.942;2023-04-03T11:07:20;11.30;98.50
9223;DHT22;7557;51.698;3.942;2023-04-03T11:09:50;11.30;97.60
9223;DHT22;7557;51.698;3.942;2023-04-03T11:12:24;11.20;97.30
9223;DHT22;7557;51.698;3.942;2023-04-03T11:14:55;11.20;96.90
9223;DHT22;7557;51.698;3.942;2023-04-03T11:17:30;11.10;97.40
9223;DHT22;7557;51.698;3.942;2023-04-03T11:20:04;11.30;98.40
9223;DHT22;7557;51.698;3.942;2023-04-03T11:22:36;11.40;97.10
9223;DHT22;7557;51.698;3.942;2023-04-03T11:25:18;11.40;97.50
9223;DHT22;7557;51.698;3.942;2023-04-03T11:27:51;11.60;98.40
9223;DHT22;7557;51.698;3.942;2023-04-03T11:30:24;11.70;98.20
9223;DHT22;7557;51.698;3.942;2023-04-03T11:33:20;11.70;96.40
9223;DHT22;7557;51.698;3.942;2023-04-03T11:35:56;11.60;94.70
9223;DHT22;7557;51.698;3.942;2023-04-03T11:38:27;11.40;94.70
9223;DHT22;7557;51.698;3.942;2023-04-03T11:40:57;11.30;95.00
9223;DHT22;7557;51.698;3.942;2023-04-03T11:43:27;11.30;95.10
9223;DHT22;7557;51.698;3.942;2023-04-03T11:45:57;11.30;95.20
9223;DHT22;7557;51.698;3.942;2023-04-03T11:48:47;11.30;94.10
9223;DHT22;7557;51.698;3.942;2023-04-03T11:51:40;11.20;94.90
9223;DHT22;7557;51.698;3.942;2023-04-03T11:54:36;11.30;95.00
9223;DHT22;7557;51.698;3.942;2023-04-03T12:06:49;11.40;93.00
9223;DHT22;7557;51.698;3.942;2023-04-03T12:09:24;11.20;93.40
9223;DHT22;7557;51.698;3.942;2023-04-03T12:11:53;11.20;94.40
9223;DHT22;7557;51.698;3.942;2023-04-03T12:14:23;11.20;93.60
9223;DHT22;7557;51.698;3.942;2023-04-03T12:16:53;11.30;93.80
9223;DHT22;7557;51.698;3.942;2023-04-03T12:19:36;11.30;94.10
9223;DHT22;7557;51.698;3.942;2023-04-03T12:22:18;11.40;94.40
9223;DHT22;7557;51.698;3.942;2023-04-03T12:24:48;11.60;95.50
9223;DHT22;7557;51.698;3.942;2023-04-03T12:27:33;11.60;93.60
9223;DHT22;7557;51.698;3.942;2023-04-03T12:30:15;11.50;91.60
9223;DHT22;7557;51.698;3.942;2023-04-03T12:32:55;11.30;91.90
9223;DHT22;7557;51.698;3.942;2023-04-03T12:35:29;11.20;92.80
9223;DHT22;7557;51.698;3.942;2023-04-03T12:41:24;11.10;92.00
9223;DHT22;7557;51.698;3.942;2023-04-03T12:46:52;11.10;93.20
9223;DHT22;7557;51.698;3.942;2023-04-03T12:49:35;11.00;92.80
9223;DHT22;7557;51.698;3.942;2023-04-03T12:52:05;11.00;93.50
9223;DHT22;7557;51.698;3.942;2023-04-03T12:54:35;10.90;93.50
9223;DHT22;7557;51.698;3.942;2023-04-03T12:57:12;11.00;94.10
9223;DHT22;7557;51.698;3.942;2023-04-03T12:59:40;11.10;93.70
9223;DHT22;7557;51.698;3.942;2023-04-03T13:02:21;11.10;93.80
9223;DHT22;7557;51.698;3.942;2023-04-03T13:04:50;11.20;92.40
9223;DHT22;7557;51.698;3.942;2023-04-03T13:07:24;11.10;91.80
9223;DHT22;7557;51.698;3.942;2023-04-03T13:10:00;11.10;93.00
9223;DHT22;7557;51.698;3.942;2023-04-03T13:12:30;11.20;93.60
9223;DHT22;7557;51.698;3.942;2023-04-03T13:15:00;11.30;94.80
9223;DHT22;7557;51.698;3.942;2023-04-03T13:17:30;11.50;93.30
9223;DHT22;7557;51.698;3.942;2023-04-03T13:20:13;11.40;92.90
9223;DHT22;7557;51.698;3.942;2023-04-03T13:22:47;11.40;92.60
9223;DHT22;7557;51.698;3.942;2023-04-03T13:25:17;11.40;93.60
9223;DHT22;7557;51.698;3.942;2023-04-03T13:27:47;11.50;94.10
9223;DHT22;7557;51.698;3.942;2023-04-03T13:30:25;11.50;93.80
9223;DHT22;7557;51.698;3.942;2023-04-03T13:32:55;11.40;91.70
9223;DHT22;7557;51.698;3.942;2023-04-03T13:35:35;11.40;91.60
9223;DHT22;7557;51.698;3.942;2023-04-03T13:38:06;11.30;90.70
9223;DHT22;7557;51.698;3.942;2023-04-03T13:40:50;11.20;92.20
9223;DHT22;7557;51.698;3.942;2023-04-03T13:43:21;11.30;91.80
9223;DHT22;7557;51.698;3.942;2023-04-03T13:46:02;11.30;91.80
9223;DHT22;7557;51.698;3.942;2023-04-03T13:48:40;11.40;92.20
9223;DHT22;7557;51.698;3.942;2023-04-03T13:51:19;11.50;91.00
9223;DHT22;7557;51.698;3.942;2023-04-03T13:53:50;11.50;90.70
9223;DHT22;7557;51.698;3.942;2023-04-03T13:56:25;11.40;91.20
9223;DHT22;7557;51.698;3.942;2023-04-03T13:59:04;11.40;91.60
9223;DHT22;7557;51.698;3.942;2023-04-03T14:01:42;11.30;90.80
9223;DHT22;7557;51.698;3.942;2023-04-03T14:04:15;11.30;90.80
9223;DHT22;7557;51.698;3.942;2023-04-03T14:06:44;11.20;91.70
9223;DHT22;7557;51.698;3.942;2023-04-03T14:09:12;11.30;92.70
9223;DHT22;7557;51.698;3.942;2023-04-03T14:11:40;11.40;92.20
9223;DHT22;7557;51.698;3.942;2023-04-03T14:14:13;11.40;92.20
9223;DHT22;7557;51.698;3.942;2023-04-03T14:16:44;11.40;91.20
9223;DHT22;7557;51.698;3.942;2023-04-03T14:19:18;11.30;90.80
9223;DHT22;7557;51.698;3.942;2023-04-03T14:21:46;11.30;92.60
9223;DHT22;7557;51.698;3.942;2023-04-03T14:24:14;11.40;92.20
9223;DHT22;7557;51.698;3.942;2023-04-03T14:26:43;11.40;91.50
9223;DHT22;7557;51.698;3.942;2023-04-03T14:29:13;11.40;91.80
9223;DHT22;7557;51.698;3.942;2023-04-03T14:31:42;11.40;91.80
9223;DHT22;7557;51.698;3.942;2023-04-03T14:34:10;11.40;92.60
9223;DHT22;7557;51.698;3.942;2023-04-03T14:36:39;11.40;93.80
9223;DHT22;7557;51.698;3.942;2023-04-03T14:39:10;11.40;92.10
9223;DHT22;7557;51.698;3.942;2023-04-03T14:41:38;11.30;91.60
9223;DHT22;7557;51.698;3.942;2023-04-03T14:44:05;11.20;92.30
9223;DHT22;7557;51.698;3.942;2023-04-03T14:46:38;11.20;92.00
9223;DHT22;7557;51.698;3.942;2023-04-03T14:49:12;11.20;92.20
9223;DHT22;7557;51.698;3.942;2023-04-03T14:51:43;11.10;93.20
9223;DHT22;7557;51.698;3.942;2023-04-03T14:54:14;11.10;92.70
9223;DHT22;7557;51.698;3.942;2023-04-03T14:56:41;11.10;93.60
9223;DHT22;7557;51.698;3.942;2023-04-03T14:59:12;11.10;93.00
9223;DHT22;7557;51.698;3.942;2023-04-03T15:01:43;11.00;92.10
9223;DHT22;7557;51.698;3.942;2023-04-03T15:04:12;11.00;93.20
9223;DHT22;7557;51.698;3.942;2023-04-03T15:06:41;11.10;93.60
9223;DHT22;7557;51.698;3.942;2023-04-03T15:09:19;11.10;93.00
9223;DHT22;7557;51.698;3.942;2023-04-03T15:11:48;11.20;93.20
9223;DHT22;7557;51.698;3.942;2023-04-03T15:14:15;11.20;92.60
9223;DHT22;7557;51.698;3.942;2023-04-03T15:16:45;11.20;93.00
9223;DHT22;7557;51.698;3.942;2023-04-03T15:19:12;11.20;94.00
9223;DHT22;7557;51.698;3.942;2023-04-03T15:21:40;11.10;93.00
9223;DHT22;7557;51.698;3.942;2023-04-03T15:24:09;11.10;94.00
9223;DHT22;7557;51.698;3.942;2023-04-03T15:26:37;11.10;93.40
9223;DHT22;7557;51.698;3.942;2023-04-03T15:29:05;11.10;94.10
9223;DHT22;7557;51.698;3.942;2023-04-03T15:31:33;11.00;93.40
9223;DHT22;7557;51.698;3.942;2023-04-03T15:34:03;11.00;93.20
9223;DHT22;7557;51.698;3.942;2023-04-03T15:36:30;11.00;92.80
9223;DHT22;7557;51.698;3.942;2023-04-03T15:38:58;11.00;93.10
9223;DHT22;7557;51.698;3.942;2023-04-03T15:41:25;11.00;93.10
9223;DHT22;7557;51.698;3.942;2023-04-03T15:43:53;10.90;94.20
9223;DHT22;7557;51.698;3.942;2023-04-03T15:46:20;10.90;94.30
9223;DHT22;7557;51.698;3.942;2023-04-03T15:48:48;11.00;94.50
9223;DHT22;7557;51.698;3.942;2023-04-03T15:51:17;11.00;94.00
9223;DHT22;7557;51.698;3.942;2023-04-03T15:53:45;11.00;93.80
9223;DHT22;7557;51.698;3.942;2023-04-03T15:56:12;10.90;93.30
9223;DHT22;7557;51.698;3.942;2023-04-03T15:58:40;10.90;94.30
9223;DHT22;7557;51.698;3.942;2023-04-03T16:01:11;10.90;94.30
9223;DHT22;7557;51.698;3.942;2023-04-03T16:03:40;10.90;94.10
9223;DHT22;7557;51.698;3.942;2023-04-03T16:06:11;10.80;92.90
9223;DHT22;7557;51.698;3.942;2023-04-03T16:08:40;10.80;92.80
9223;DHT22;7557;51.698;3.942;2023-04-03T16:11:08;10.70;92.50
9223;DHT22;7557;51.698;3.942;2023-04-03T16:13:38;10.60;93.00
9223;DHT22;7557;51.698;3.942;2023-04-03T16:16:06;10.60;93.10
9223;DHT22;7557;51.698;3.942;2023-04-03T16:18:34;10.60;93.70
9223;DHT22;7557;51.698;3.942;2023-04-03T16:21:05;10.60;93.40
9223;DHT22;7557;51.698;3.942;2023-04-03T16:23:34;10.60;94.30
9223;DHT22;7557;51.698;3.942;2023-04-03T16:26:05;10.60;94.30
9223;DHT22;7557;51.698;3.942;2023-04-03T16:28:33;10.60;94.00
9223;DHT22;7557;51.698;3.942;2023-04-03T16:31:01;10.60;94.50
9223;DHT22;7557;51.698;3.942;2023-04-03T16:33:30;10.60;94.60
9223;DHT22;7557;51.698;3.942;2023-04-03T16:35:57;10.60;94.50
9223;DHT22;7557;51.698;3.942;2023-04-03T16:38:25;10.60;94.50
9223;DHT22;7557;51.698;3.942;2023-04-03T16:40:52;10.50;94.10
9223;DHT22;7557;51.698;3.942;2023-04-03T16:43:24;10.50;94.60
9223;DHT22;7557;51.698;3.942;2023-04-03T16:45:51;10.50;94.60
9223;DHT22;7557;51.698;3.942;2023-04-03T16:48:22;10.40;94.50
9223;DHT22;7557;51.698;3.942;2023-04-03T16:50:49;10.40;94.20